createdAt,value
2019-05-07T00:00:00.303Z,13.27
2019-05-07T00:02:35.058Z,13.43
2019-05-07T00:05:08.563Z,16.30
2019-05-07T00:07:42.572Z,13.93
2019-05-07T00:10:17.632Z,15.10
2019-05-07T00:12:51.985Z,13.17
2019-05-07T00:15:45.394Z,18.30
2019-05-07T00:18:19.865Z,12.83
2019-05-07T00:21:12.587Z,14.23
2019-05-07T00:24:03.737Z,14.77
2019-05-07T00:26:38.018Z,16.07
2019-05-07T00:29:23.005Z,15.30
2019-05-07T00:32:14.797Z,17.63
2019-05-07T00:35:07.794Z,14.17
2019-05-07T00:38:03.292Z,13.17
2019-05-07T00:40:56.130Z,14.53
2019-05-07T00:43:33.483Z,15.07
2019-05-07T00:46:09.921Z,18.13
2019-05-07T00:48:43.425Z,17.90
2019-05-07T00:51:45.532Z,22.23
2019-05-07T00:54:20.488Z,16.67
2019-05-07T00:56:54.875Z,19.40
2019-05-07T00:59:29.067Z,22.17
2019-05-07T01:02:19.781Z,25.07
2019-05-07T01:04:53.594Z,34.13
2019-05-07T01:07:27.743Z,38.37
2019-05-07T01:10:02.217Z,39.23
2019-05-07T01:12:55.022Z,21.23
2019-05-07T01:15:32.098Z,35.67
2019-05-07T01:18:04.182Z,24.47
2019-05-07T01:20:38.378Z,24.77
2019-05-07T01:23:33.037Z,19.70
2019-05-07T01:26:23.772Z,28.30
2019-05-07T01:29:07.917Z,22.13
2019-05-07T01:31:47.562Z,18.17
2019-05-07T01:34:43.621Z,18.63
2019-05-07T01:37:17.449Z,11.73
2019-05-07T01:39:52.913Z,10.97
2019-05-07T01:42:27.218Z,11.60
2019-05-07T01:45:02.268Z,12.07
2019-05-07T01:47:49.344Z,12.30
2019-05-07T01:50:23.146Z,13.37
2019-05-07T01:53:08.985Z,12.57
2019-05-07T01:55:59.407Z,12.23
2019-05-07T01:58:33.449Z,11.93
2019-05-07T02:01:18.552Z,12.73
2019-05-07T02:04:24.761Z,11.20
2019-05-07T02:07:28.926Z,12.23
2019-05-07T02:10:14.743Z,11.50
2019-05-07T02:13:07.492Z,11.97
2019-05-07T02:15:42.768Z,12.20
2019-05-07T02:18:28.168Z,13.67
2019-05-07T02:21:18.554Z,12.57
2019-05-07T02:23:52.425Z,10.73
2019-05-07T02:26:26.544Z,11.43
2019-05-07T02:29:17.595Z,12.30
2019-05-07T02:32:08.995Z,12.10
2019-05-07T02:34:54.710Z,11.93
2019-05-07T02:37:47.052Z,15.20
2019-05-07T02:40:43.434Z,12.87
2019-05-07T02:43:17.590Z,12.17
2019-05-07T02:46:26.370Z,15.13
2019-05-07T02:49:14.437Z,16.80
2019-05-07T02:52:23.815Z,13.07
2019-05-07T02:55:13.317Z,14.23
2019-05-07T02:57:48.683Z,13.10
2019-05-07T03:00:24.148Z,11.63
2019-05-07T03:02:57.881Z,15.43
2019-05-07T03:05:34.953Z,13.63
2019-05-07T03:08:09.551Z,12.67
2019-05-07T03:10:44.125Z,13.23
2019-05-07T03:13:35.693Z,13.57
2019-05-07T03:16:39.601Z,14.13
2019-05-07T03:19:06.122Z,14.63
2019-05-07T03:21:55.126Z,15.93
2019-05-07T03:24:44.430Z,14.00
2019-05-07T03:27:36.120Z,14.40
2019-05-07T03:30:45.508Z,14.87
2019-05-07T03:33:55.943Z,13.87
2019-05-07T03:36:56.077Z,13.47
2019-05-07T03:39:27.246Z,16.93
2019-05-07T03:42:03.400Z,17.03
2019-05-07T03:44:56.831Z,12.43
2019-05-07T03:47:37.402Z,11.57
2019-05-07T03:50:14.722Z,13.73
2019-05-07T03:52:48.691Z,13.00
2019-05-07T03:55:24.135Z,16.27
2019-05-07T03:57:57.954Z,12.93
2019-05-07T04:00:33.246Z,13.97
2019-05-07T04:03:09.237Z,12.30
2019-05-07T04:06:03.543Z,12.93
2019-05-07T04:08:46.725Z,13.60
2019-05-07T04:11:37.891Z,12.53
2019-05-07T04:14:29.403Z,13.53
2019-05-07T04:17:22.100Z,12.07
2019-05-07T04:20:04.469Z,12.67
2019-05-07T04:22:42.862Z,11.67
2019-05-07T04:25:43.656Z,12.37
2019-05-07T04:28:33.692Z,12.03
2019-05-07T04:31:34.255Z,13.00
2019-05-07T04:34:13.683Z,12.47
2019-05-07T04:36:53.217Z,11.77
2019-05-07T04:39:37.084Z,14.90
2019-05-07T04:42:13.279Z,16.43
2019-05-07T04:44:47.246Z,12.57
2019-05-07T04:47:42.587Z,12.93
2019-05-07T04:50:38.263Z,16.80
2019-05-07T04:52:58.449Z,15.37
2019-05-07T04:55:44.231Z,11.37
2019-05-07T04:58:35.619Z,15.97
2019-05-07T05:01:13.795Z,14.17
2019-05-07T05:03:46.948Z,19.20
2019-05-07T05:06:23.876Z,16.03
2019-05-07T05:08:57.327Z,21.57
2019-05-07T05:11:33.591Z,17.60
2019-05-07T05:14:24.375Z,16.87
2019-05-07T05:17:15.757Z,17.43
2019-05-07T05:20:03.547Z,14.67
2019-05-07T05:23:14.751Z,16.80
2019-05-07T05:26:12.418Z,14.93
2019-05-07T05:28:45.938Z,19.13
2019-05-07T05:31:22.146Z,17.73
2019-05-07T05:33:56.521Z,17.30
2019-05-07T05:36:33.000Z,15.00
2019-05-07T05:39:18.212Z,16.87
2019-05-07T05:41:55.699Z,21.80
2019-05-07T05:44:32.137Z,18.30
2019-05-07T05:47:06.005Z,17.47
2019-05-07T05:49:42.749Z,18.67
2019-05-07T05:52:35.467Z,17.70
2019-05-07T05:55:32.171Z,17.23
2019-05-07T05:58:35.532Z,19.17
2019-05-07T06:01:56.151Z,15.23
2019-05-07T06:04:47.354Z,18.57
2019-05-07T06:07:45.175Z,22.57
2019-05-07T06:10:33.015Z,20.43
2019-05-07T06:13:28.549Z,15.57
2019-05-07T06:16:12.723Z,20.07
2019-05-07T06:19:19.057Z,17.47
2019-05-07T06:22:16.861Z,20.63
2019-05-07T06:25:24.654Z,22.90
2019-05-07T06:27:57.509Z,17.30
2019-05-07T06:30:33.717Z,19.13
2019-05-07T06:33:19.016Z,19.10
2019-05-07T06:36:12.519Z,15.53
2019-05-07T06:38:53.120Z,22.10
2019-05-07T06:42:04.626Z,21.43
2019-05-07T06:45:06.867Z,16.37
2019-05-07T06:48:06.902Z,16.50
2019-05-07T06:50:58.902Z,15.90
2019-05-07T06:53:33.589Z,18.20
2019-05-07T06:56:25.234Z,19.53
2019-05-07T06:59:19.375Z,15.23
2019-05-07T07:02:25.468Z,14.27
2019-05-07T07:05:46.953Z,13.40
2019-05-07T07:08:29.658Z,19.50
2019-05-07T07:11:09.485Z,15.47
2019-05-07T07:13:43.155Z,15.07
2019-05-07T07:16:17.326Z,15.60
2019-05-07T07:18:53.077Z,12.10
2019-05-07T07:21:27.632Z,16.23
2019-05-07T07:24:03.013Z,14.00
2019-05-07T07:26:37.406Z,14.33
2019-05-07T07:29:12.891Z,12.27
2019-05-07T07:31:52.640Z,11.90
2019-05-07T07:34:46.700Z,13.40
2019-05-07T07:37:27.491Z,12.10
2019-05-07T07:40:29.262Z,13.17
2019-05-07T07:43:06.823Z,11.80
2019-05-07T07:45:41.875Z,11.43
2019-05-07T07:48:14.772Z,11.53
2019-05-07T07:50:48.983Z,8.80
2019-05-07T07:53:23.442Z,7.37
2019-05-07T07:56:26.611Z,9.37
2019-05-07T07:59:25.413Z,12.13
2019-05-07T08:02:32.227Z,8.77
2019-05-07T08:05:06.423Z,9.23
2019-05-07T08:07:42.454Z,16.23
2019-05-07T08:10:17.135Z,8.00
2019-05-07T08:13:08.830Z,6.17
2019-05-07T08:16:02.391Z,8.63
2019-05-07T08:25:34.275Z,6.80
2019-05-07T08:28:11.981Z,10.07
2019-05-07T08:30:53.393Z,4.70
2019-05-07T08:33:32.322Z,8.37
2019-05-07T08:36:14.340Z,11.27
2019-05-07T08:38:52.746Z,8.40
2019-05-07T08:41:32.239Z,9.33
2019-05-07T08:44:12.910Z,6.87
2019-05-07T08:47:37.421Z,10.07
2019-05-07T08:53:52.748Z,4.73
2019-05-07T08:56:28.127Z,4.47
2019-05-07T08:59:12.440Z,6.67
2019-05-07T09:01:48.139Z,4.97
2019-05-07T09:04:29.252Z,5.07
2019-05-07T09:07:04.253Z,6.40
2019-05-07T09:09:45.363Z,7.87
2019-05-07T09:12:18.574Z,4.43
2019-05-07T09:14:53.090Z,3.33
2019-05-07T09:17:26.405Z,3.57
2019-05-07T09:20:13.023Z,7.90
2019-05-07T09:22:52.711Z,6.33
2019-05-07T09:25:48.107Z,5.53
2019-05-07T09:29:15.744Z,5.43
2019-05-07T09:32:07.100Z,4.70
2019-05-07T09:34:44.401Z,4.47
2019-05-07T09:37:34.199Z,5.20
2019-05-07T09:40:08.356Z,3.50
2019-05-07T09:42:53.034Z,4.67
2019-05-07T09:45:26.970Z,7.70
2019-05-07T09:48:02.835Z,2.00
2019-05-07T10:08:37.516Z,5.23
2019-05-07T10:11:14.485Z,5.13
2019-05-07T10:13:54.964Z,3.23
2019-05-07T10:16:52.420Z,3.20
2019-05-07T10:19:26.133Z,3.57
2019-05-07T10:22:02.174Z,4.73
2019-05-07T10:24:53.252Z,3.53
2019-05-07T10:27:44.915Z,2.57
2019-05-07T10:30:19.282Z,3.40
2019-05-07T10:32:53.683Z,4.23
2019-05-07T10:35:27.171Z,5.57
2019-05-07T10:38:02.027Z,5.60
2019-05-07T10:40:47.680Z,7.83
2019-05-07T10:43:38.364Z,4.33
2019-05-07T10:46:33.759Z,4.77
2019-05-07T10:49:24.069Z,2.50
2019-05-07T10:51:57.729Z,3.80
2019-05-07T10:54:30.912Z,2.43
2019-05-07T10:57:05.152Z,4.63
2019-05-07T10:59:38.981Z,3.17
2019-05-07T11:02:32.517Z,5.07
2019-05-07T11:05:06.353Z,4.97
2019-05-07T11:07:42.146Z,2.93
2019-05-07T11:10:15.875Z,3.17
2019-05-07T11:13:06.790Z,2.17
2019-05-07T11:16:04.524Z,4.57
2019-05-07T11:18:51.931Z,4.80
2019-05-07T11:21:33.397Z,5.87
2019-05-07T11:24:06.802Z,2.33
2019-05-07T11:26:41.963Z,3.87
2019-05-07T11:29:15.735Z,1.93
2019-05-07T11:31:49.601Z,2.23
2019-05-07T11:34:24.116Z,4.17
2019-05-07T11:36:58.158Z,4.80
2019-05-07T11:39:33.207Z,4.53
2019-05-07T11:42:28.250Z,4.20
2019-05-07T11:45:26.884Z,3.90
2019-05-07T11:48:01.949Z,2.57
2019-05-07T11:51:03.664Z,5.33
2019-05-07T11:53:32.701Z,6.13
2019-05-07T11:56:32.964Z,4.50
2019-05-07T11:59:06.549Z,3.37
2019-05-07T12:01:47.105Z,4.70
2019-05-07T12:04:18.633Z,4.10
2019-05-07T12:06:52.623Z,3.63
2019-05-07T12:09:26.872Z,2.83
2019-05-07T12:12:02.436Z,4.30
2019-05-07T12:14:36.200Z,4.30
2019-05-07T12:17:11.955Z,3.90
2019-05-07T12:19:57.375Z,5.10
2019-05-07T12:22:51.988Z,6.53
2019-05-07T12:25:24.719Z,3.33
2019-05-07T12:27:58.864Z,2.70
2019-05-07T12:30:57.195Z,4.33
2019-05-07T12:33:54.908Z,5.53
2019-05-07T12:36:29.355Z,6.50
2019-05-07T12:39:03.744Z,5.57
2019-05-07T12:41:52.447Z,4.63
2019-05-07T12:44:26.353Z,3.57
2019-05-07T12:47:01.737Z,3.73
2019-05-07T12:49:35.128Z,5.23
2019-05-07T12:52:15.209Z,4.27
2019-05-07T12:54:56.014Z,4.00
2019-05-07T12:58:02.269Z,3.03
2019-05-07T13:01:07.138Z,3.97
2019-05-07T13:03:48.908Z,3.13
2019-05-07T13:06:23.071Z,4.07
2019-05-07T13:08:57.585Z,3.17
2019-05-07T13:11:32.560Z,4.40
2019-05-07T13:14:06.124Z,2.57
2019-05-07T13:16:40.108Z,4.93
2019-05-07T13:19:13.954Z,4.77
2019-05-07T13:21:49.957Z,3.53
2019-05-07T13:24:24.080Z,3.37
2019-05-07T13:26:58.267Z,3.03
2019-05-07T13:29:32.585Z,3.53
2019-05-07T13:32:06.462Z,2.73
2019-05-07T13:34:42.562Z,5.27
2019-05-07T13:37:22.973Z,3.53
2019-05-07T13:40:12.876Z,3.30
2019-05-07T13:42:56.634Z,2.43
2019-05-07T13:45:37.654Z,3.67
2019-05-07T13:48:15.366Z,2.00
2019-05-07T13:51:01.787Z,3.60
2019-05-07T13:53:35.679Z,2.73
2019-05-07T13:56:09.368Z,3.03
2019-05-07T13:58:42.987Z,4.13
2019-05-07T14:01:39.066Z,4.00
2019-05-07T14:04:13.724Z,2.73
2019-05-07T14:06:47.844Z,2.00
2019-05-07T14:09:41.996Z,4.20
2019-05-07T14:12:17.152Z,2.47
2019-05-07T14:14:52.810Z,4.57
2019-05-07T14:17:29.015Z,2.33
2019-05-07T14:20:04.912Z,1.80
2019-05-07T14:22:38.993Z,2.93
2019-05-07T14:25:32.434Z,3.13
2019-05-07T14:28:08.343Z,4.70
2019-05-07T14:30:42.552Z,4.70
2019-05-07T14:33:22.704Z,4.53
2019-05-07T14:36:26.533Z,3.60
2019-05-07T14:38:59.550Z,3.47
2019-05-07T14:41:33.399Z,3.00
2019-05-07T14:44:12.108Z,2.63
2019-05-07T14:46:54.070Z,1.80
2019-05-07T14:49:22.594Z,4.03
2019-05-07T14:51:57.451Z,3.33
2019-05-07T14:54:48.868Z,3.73
2019-05-07T14:57:23.452Z,3.40
2019-05-07T14:59:57.805Z,3.37
2019-05-07T15:02:48.814Z,2.47
2019-05-07T15:05:22.343Z,3.83
2019-05-07T15:34:22.735Z,3.60
2019-05-07T15:36:56.699Z,2.27
2019-05-07T15:39:32.653Z,3.83
2019-05-07T15:42:13.658Z,2.63
2019-05-07T15:49:21.646Z,7.10
2019-05-07T15:51:57.197Z,4.57
2019-05-07T15:54:32.555Z,2.20
2019-05-07T15:57:08.748Z,4.17
2019-05-07T15:59:43.086Z,4.13
2019-05-07T16:02:28.383Z,4.43
2019-05-07T16:15:48.764Z,5.53
2019-05-07T16:18:43.403Z,4.63
2019-05-07T16:21:37.825Z,5.63
2019-05-07T16:24:32.332Z,4.57
2019-05-07T16:27:25.030Z,4.30
2019-05-07T16:29:58.869Z,2.47
2019-05-07T16:32:33.130Z,3.50
2019-05-07T16:35:07.079Z,2.53
2019-05-07T16:37:42.835Z,5.07
2019-05-07T16:40:18.949Z,2.73
2019-05-07T16:42:53.117Z,3.40
2019-05-07T16:45:26.929Z,2.37
2019-05-07T16:48:03.185Z,4.70
2019-05-07T16:50:36.791Z,4.33
2019-05-07T16:53:29.814Z,5.90
2019-05-07T16:56:19.040Z,3.17
2019-05-07T16:59:17.956Z,3.37
2019-05-07T17:02:09.483Z,3.33
2019-05-07T17:05:04.690Z,4.80
2019-05-07T17:07:43.364Z,3.67
2019-05-07T17:10:17.534Z,4.30
2019-05-07T17:13:32.857Z,3.77
2019-05-07T17:16:06.678Z,5.60
2019-05-07T17:18:41.461Z,3.07
2019-05-07T17:32:26.150Z,4.50
2019-05-07T17:35:03.986Z,5.13
2019-05-07T17:37:41.220Z,3.93
2019-05-07T19:56:10.079Z,5.77
2019-05-07T19:58:52.697Z,4.83
2019-05-07T20:41:03.649Z,6.80
2019-05-07T20:43:47.965Z,5.43
2019-05-07T20:46:42.154Z,7.53
2019-05-07T21:08:05.825Z,5.53
2019-05-07T21:11:05.848Z,4.67
2019-05-07T21:13:52.275Z,6.50
2019-05-07T21:27:12.548Z,6.47
2019-05-07T21:30:13.834Z,4.27
2019-05-07T21:32:56.323Z,5.37
2019-05-07T21:35:49.157Z,7.57
2019-05-07T21:38:51.836Z,6.47
2019-05-07T21:41:27.447Z,5.47
2019-05-07T21:44:03.319Z,5.37
2019-05-07T21:46:42.586Z,5.83
2019-05-07T21:49:18.047Z,4.40
2019-05-07T21:51:55.311Z,4.97
2019-05-07T21:54:43.454Z,6.47
2019-05-07T21:57:42.878Z,5.43
2019-05-07T22:01:13.132Z,4.90
2019-05-07T22:04:05.605Z,6.07
2019-05-07T22:06:45.118Z,5.77
2019-05-07T22:09:15.744Z,5.57
2019-05-07T22:11:53.469Z,4.90
2019-05-07T22:14:27.584Z,6.47
2019-05-07T22:17:02.027Z,4.90
2019-05-07T22:19:52.832Z,5.63
2019-05-07T22:22:43.115Z,7.57
2019-05-07T22:25:34.843Z,4.80
2019-05-07T22:28:10.230Z,5.83
2019-05-07T22:30:57.562Z,5.43
2019-05-07T22:33:52.707Z,5.00
2019-05-07T22:36:26.316Z,5.17
2019-05-07T22:39:04.714Z,6.13
2019-05-07T22:41:42.305Z,4.97
2019-05-07T22:44:28.082Z,7.07
2019-05-07T22:47:23.571Z,5.57
2019-05-07T22:50:11.872Z,6.40
2019-05-07T22:52:45.589Z,7.07
2019-05-07T22:55:21.483Z,5.90
2019-05-07T22:58:03.897Z,5.30
2019-05-07T23:00:42.709Z,5.97
2019-05-07T23:03:16.964Z,4.90
2019-05-07T23:06:08.470Z,4.50
2019-05-07T23:08:42.664Z,6.67
2019-05-07T23:11:27.822Z,7.57
2019-05-07T23:14:02.998Z,5.40
2019-05-07T23:16:48.402Z,5.30
2019-05-07T23:19:22.437Z,6.83
2019-05-07T23:21:57.174Z,6.97
2019-05-07T23:24:31.859Z,5.53
2019-05-07T23:27:22.438Z,5.97
2019-05-07T23:29:56.963Z,6.40
2019-05-07T23:32:42.735Z,5.50
2019-05-07T23:35:16.759Z,7.40
2019-05-07T23:37:52.786Z,6.43
2019-05-07T23:41:05.875Z,5.03
2019-05-07T23:43:39.869Z,6.30
2019-05-07T23:46:15.752Z,6.77
2019-05-07T23:48:49.716Z,5.47
2019-05-07T23:51:25.842Z,7.13
2019-05-07T23:54:16.056Z,7.40
2019-05-07T23:57:15.244Z,8.37
2019-05-07T23:59:48.487Z,8.23
